createdAt,value
2018-07-21T00:00:00.436Z,0.00
2018-07-21T00:01:53.274Z,0.00
2018-07-21T00:02:53.156Z,0.00
2018-07-21T00:04:46.028Z,0.00
2018-07-21T00:05:45.923Z,0.00
2018-07-21T00:07:38.771Z,0.00
2018-07-21T00:08:38.669Z,0.00
2018-07-21T00:10:31.513Z,0.00
2018-07-21T00:11:31.405Z,0.00
2018-07-21T00:13:24.258Z,0.00
2018-07-21T00:14:24.175Z,0.00
2018-07-21T00:16:16.920Z,0.00
2018-07-21T00:17:16.807Z,0.00
2018-07-21T00:19:09.652Z,0.00
2018-07-21T00:20:09.560Z,0.00
2018-07-21T00:22:02.413Z,0.00
2018-07-21T00:23:02.428Z,0.00
2018-07-21T00:24:55.186Z,0.00
2018-07-21T00:25:55.059Z,0.00
2018-07-21T00:27:47.913Z,0.00
2018-07-21T00:28:47.826Z,0.00
2018-07-21T00:30:40.688Z,0.00
2018-07-21T00:31:40.565Z,0.00
2018-07-21T00:33:33.455Z,0.00
2018-07-21T00:34:33.207Z,0.00
2018-07-21T00:36:26.084Z,0.00
2018-07-21T00:37:25.962Z,0.00
2018-07-21T00:39:18.794Z,0.00
2018-07-21T00:40:18.730Z,0.00
2018-07-21T00:42:11.570Z,0.00
2018-07-21T00:43:11.446Z,0.00
2018-07-21T00:45:04.281Z,0.00
2018-07-21T00:46:04.196Z,0.00
2018-07-21T00:47:57.095Z,0.00
2018-07-21T00:48:56.982Z,0.00
2018-07-21T00:50:49.779Z,0.00
2018-07-21T00:51:49.730Z,0.00
2018-07-21T00:53:42.542Z,0.00
2018-07-21T00:54:42.456Z,0.00
2018-07-21T00:56:35.315Z,0.00
2018-07-21T00:57:35.216Z,0.00
2018-07-21T00:59:28.873Z,0.00
2018-07-21T01:00:28.934Z,0.00
2018-07-21T01:02:21.605Z,0.00
2018-07-21T01:03:21.515Z,0.00
2018-07-21T01:05:14.389Z,0.00
2018-07-21T01:06:14.267Z,0.00
2018-07-21T01:08:07.137Z,0.00
2018-07-21T01:09:07.009Z,0.00
2018-07-21T01:10:59.889Z,0.00
2018-07-21T01:11:59.764Z,0.00
2018-07-21T01:13:52.619Z,0.00
2018-07-21T01:14:52.508Z,0.00
2018-07-21T01:16:45.377Z,0.00
2018-07-21T01:17:45.262Z,0.00
2018-07-21T01:19:38.123Z,0.00
2018-07-21T01:20:38.010Z,0.00
2018-07-21T01:22:30.959Z,0.00
2018-07-21T01:23:30.766Z,0.00
2018-07-21T01:25:23.623Z,0.00
2018-07-21T01:26:23.546Z,0.00
2018-07-21T01:28:16.364Z,0.00
2018-07-21T01:29:16.261Z,0.00
2018-07-21T01:31:09.134Z,0.00
2018-07-21T01:32:09.033Z,0.00
2018-07-21T01:34:01.874Z,0.00
2018-07-21T01:35:01.805Z,0.00
2018-07-21T01:36:54.621Z,0.00
2018-07-21T01:37:54.501Z,0.00
2018-07-21T01:39:47.508Z,0.00
2018-07-21T01:40:47.259Z,0.00
2018-07-21T01:42:40.096Z,0.00
2018-07-21T01:43:40.035Z,0.00
2018-07-21T01:45:32.906Z,0.00
2018-07-21T01:46:32.780Z,0.00
2018-07-21T01:48:25.635Z,0.00
2018-07-21T01:49:25.531Z,0.00
2018-07-21T01:51:18.516Z,0.00
2018-07-21T01:52:18.252Z,0.00
2018-07-21T01:54:11.092Z,0.00
2018-07-21T01:55:11.000Z,0.00
2018-07-21T01:57:03.856Z,0.00
2018-07-21T01:58:03.777Z,0.00
2018-07-21T01:59:57.016Z,0.00
2018-07-21T02:00:56.917Z,0.00
2018-07-21T02:02:49.787Z,0.00
2018-07-21T02:03:49.661Z,0.00
2018-07-21T02:05:42.534Z,0.00
2018-07-21T02:06:42.447Z,0.00
2018-07-21T02:08:35.284Z,0.00
2018-07-21T02:09:35.172Z,0.00
2018-07-21T02:11:28.075Z,0.00
2018-07-21T02:12:27.911Z,0.00
2018-07-21T02:14:20.765Z,0.00
2018-07-21T02:15:20.667Z,0.00
2018-07-21T02:17:13.523Z,0.00
2018-07-21T02:18:13.327Z,0.00
2018-07-21T02:20:06.184Z,0.00
2018-07-21T02:21:06.074Z,0.00
2018-07-21T02:22:58.941Z,0.00
2018-07-21T02:23:58.843Z,0.00
2018-07-21T02:25:51.675Z,0.00
2018-07-21T02:26:51.564Z,0.00
2018-07-21T02:28:44.415Z,0.00
2018-07-21T02:29:44.301Z,0.00
2018-07-21T02:31:37.161Z,0.00
2018-07-21T02:32:37.051Z,0.00
2018-07-21T02:34:29.962Z,0.00
2018-07-21T02:35:30.042Z,0.00
2018-07-21T02:37:22.662Z,0.00
2018-07-21T02:38:22.551Z,0.00
2018-07-21T02:40:15.414Z,0.00
2018-07-21T02:41:15.332Z,0.00
2018-07-21T02:43:08.185Z,0.00
2018-07-21T02:44:08.052Z,0.00
2018-07-21T02:46:00.889Z,0.00
2018-07-21T02:47:00.824Z,0.00
2018-07-21T02:48:53.560Z,0.00
2018-07-21T02:49:53.475Z,0.00
2018-07-21T02:51:46.292Z,0.00
2018-07-21T02:52:46.210Z,0.00
2018-07-21T02:54:39.075Z,0.00
2018-07-21T02:55:38.947Z,0.00
2018-07-21T02:57:31.808Z,0.00
2018-07-21T02:58:31.716Z,0.00
2018-07-21T03:00:24.557Z,0.00
2018-07-21T03:01:24.444Z,0.00
2018-07-21T03:03:17.302Z,0.00
2018-07-21T03:04:17.206Z,0.00
2018-07-21T03:06:10.064Z,0.00
2018-07-21T03:07:09.946Z,0.00
2018-07-21T03:09:02.803Z,0.00
2018-07-21T03:10:02.711Z,0.00
2018-07-21T03:11:55.465Z,0.00
2018-07-21T03:12:55.356Z,0.00
2018-07-21T03:14:48.183Z,0.00
2018-07-21T03:15:48.101Z,0.00
2018-07-21T03:17:40.962Z,0.00
2018-07-21T03:18:40.856Z,0.00
2018-07-21T03:20:34.712Z,0.00
2018-07-21T03:21:34.012Z,0.00
2018-07-21T03:23:26.845Z,0.00
2018-07-21T03:24:26.772Z,0.00
2018-07-21T03:26:19.638Z,0.00
2018-07-21T03:27:19.500Z,0.00
2018-07-21T03:29:12.247Z,0.00
2018-07-21T03:30:12.147Z,0.00
2018-07-21T03:32:05.008Z,0.00
2018-07-21T03:33:04.899Z,0.00
2018-07-21T03:34:57.661Z,0.00
2018-07-21T03:35:57.551Z,0.00
2018-07-21T03:37:50.436Z,0.00
2018-07-21T03:38:50.298Z,0.00
2018-07-21T03:40:43.037Z,5.63
2018-07-21T03:41:42.960Z,5.63
2018-07-21T03:43:36.244Z,5.63
2018-07-21T03:44:36.103Z,5.63
2018-07-21T03:46:28.942Z,5.63
2018-07-21T03:47:28.852Z,5.63
2018-07-21T03:49:21.727Z,5.63
2018-07-21T03:50:21.625Z,11.25
2018-07-21T03:52:14.451Z,11.25
2018-07-21T03:53:14.344Z,11.25
2018-07-21T03:55:07.254Z,11.25
2018-07-21T03:56:07.098Z,11.25
2018-07-21T03:57:59.949Z,11.25
2018-07-21T03:58:59.848Z,11.25
2018-07-21T04:00:52.605Z,16.88
2018-07-21T04:01:52.520Z,16.88
2018-07-21T04:03:45.270Z,16.88
2018-07-21T04:04:45.142Z,16.88
2018-07-21T04:06:38.017Z,16.88
2018-07-21T04:07:37.895Z,16.88
2018-07-21T04:09:30.749Z,16.88
2018-07-21T04:10:30.641Z,16.88
2018-07-21T04:12:23.399Z,22.50
2018-07-21T04:13:23.294Z,22.50
2018-07-21T04:15:16.196Z,22.50
2018-07-21T04:16:16.038Z,22.50
2018-07-21T04:18:09.028Z,22.50
2018-07-21T04:19:08.847Z,28.13
2018-07-21T04:21:01.644Z,28.13
2018-07-21T04:22:01.558Z,28.13
2018-07-21T04:23:54.338Z,28.13
2018-07-21T04:24:54.189Z,28.13
2018-07-21T04:26:47.045Z,33.75
2018-07-21T04:27:46.933Z,33.75
2018-07-21T04:29:42.112Z,33.75
2018-07-21T04:30:41.685Z,33.75
2018-07-21T04:32:35.241Z,33.75
2018-07-21T04:33:35.111Z,33.75
2018-07-21T04:35:27.955Z,33.75
2018-07-21T04:36:27.861Z,33.75
2018-07-21T04:38:20.700Z,39.38
2018-07-21T04:39:20.591Z,39.38
2018-07-21T04:41:13.344Z,39.38
2018-07-21T04:42:13.256Z,39.38
2018-07-21T04:44:06.114Z,39.38
2018-07-21T04:45:06.093Z,39.38
2018-07-21T04:46:58.742Z,39.38
2018-07-21T04:47:58.641Z,39.38
2018-07-21T04:49:51.502Z,45.00
2018-07-21T04:50:51.384Z,45.00
2018-07-21T04:52:44.167Z,45.00
2018-07-21T04:53:44.050Z,45.00
2018-07-21T04:55:36.905Z,50.63
2018-07-21T04:56:36.798Z,50.63
2018-07-21T04:58:29.664Z,50.63
2018-07-21T04:59:29.429Z,50.63
2018-07-21T05:01:22.296Z,56.25
2018-07-21T05:02:22.202Z,56.25
2018-07-21T05:04:15.035Z,56.25
2018-07-21T05:05:14.926Z,56.25
2018-07-21T05:07:07.687Z,56.25
2018-07-21T05:08:07.589Z,61.88
2018-07-21T05:10:00.841Z,61.88
2018-07-21T05:11:00.738Z,61.88
2018-07-21T05:12:53.598Z,61.88
2018-07-21T05:13:53.486Z,61.88
2018-07-21T05:15:46.232Z,61.88
2018-07-21T05:16:46.136Z,67.50
2018-07-21T05:18:39.021Z,73.13
2018-07-21T05:19:38.914Z,73.13
2018-07-21T05:21:31.648Z,73.13
2018-07-21T05:22:31.548Z,73.13
2018-07-21T05:24:24.494Z,78.75
2018-07-21T05:25:24.294Z,84.38
2018-07-21T05:27:17.119Z,84.38
2018-07-21T05:28:17.256Z,84.38
2018-07-21T05:30:09.903Z,84.38
2018-07-21T05:31:09.807Z,84.38
2018-07-21T05:33:02.642Z,90.00
2018-07-21T05:34:02.533Z,90.00
2018-07-21T05:35:55.391Z,90.00
2018-07-21T05:36:55.274Z,90.00
2018-07-21T05:38:48.667Z,84.38
2018-07-21T05:39:48.450Z,84.38
2018-07-21T05:41:41.317Z,84.38
2018-07-21T05:42:41.190Z,84.38
2018-07-21T05:44:33.943Z,90.00
2018-07-21T05:45:33.843Z,90.00
2018-07-21T05:47:26.675Z,90.00
2018-07-21T05:48:26.594Z,90.00
2018-07-21T05:50:19.433Z,90.00
2018-07-21T05:51:19.334Z,90.00
2018-07-21T05:53:12.253Z,84.38
2018-07-21T05:54:12.083Z,90.00
2018-07-21T05:56:04.924Z,90.00
2018-07-21T05:57:04.850Z,95.63
2018-07-21T05:58:58.111Z,90.00
2018-07-21T05:59:58.004Z,95.63
2018-07-21T06:01:50.835Z,95.63
2018-07-21T06:02:50.829Z,101.25
2018-07-21T06:04:43.599Z,106.88
2018-07-21T06:05:43.489Z,101.25
2018-07-21T06:07:36.348Z,112.50
2018-07-21T06:08:36.281Z,118.13
2018-07-21T06:10:29.093Z,123.75
2018-07-21T06:11:28.991Z,123.75
2018-07-21T06:13:21.743Z,129.38
2018-07-21T06:14:21.713Z,129.38
2018-07-21T06:16:14.488Z,135.00
2018-07-21T06:17:14.382Z,135.00
2018-07-21T06:19:07.326Z,129.38
2018-07-21T06:20:07.142Z,129.38
2018-07-21T06:22:00.005Z,123.75
2018-07-21T06:22:59.914Z,106.88
2018-07-21T06:24:52.754Z,95.63
2018-07-21T06:25:52.639Z,95.63
2018-07-21T06:27:45.568Z,95.63
2018-07-21T06:28:45.462Z,95.63
2018-07-21T06:30:38.244Z,95.63
2018-07-21T06:31:38.138Z,90.00
2018-07-21T06:33:30.992Z,90.00
2018-07-21T06:34:30.895Z,90.00
2018-07-21T06:36:23.744Z,90.00
2018-07-21T06:37:23.634Z,90.00
2018-07-21T06:39:16.507Z,90.00
2018-07-21T06:40:16.399Z,90.00
2018-07-21T06:42:09.236Z,90.00
2018-07-21T06:43:09.211Z,95.63
2018-07-21T06:45:02.009Z,95.63
2018-07-21T06:46:01.907Z,95.63
2018-07-21T06:47:54.731Z,90.00
2018-07-21T06:48:54.663Z,90.00
2018-07-21T06:50:47.490Z,90.00
2018-07-21T06:51:47.410Z,90.00
2018-07-21T06:53:40.227Z,95.63
2018-07-21T06:54:40.150Z,95.63
2018-07-21T06:56:33.008Z,101.25
2018-07-21T06:57:32.952Z,106.88
2018-07-21T06:59:25.746Z,112.50
2018-07-21T07:00:25.646Z,112.50
2018-07-21T07:02:18.513Z,118.13
2018-07-21T07:03:18.391Z,123.75
2018-07-21T07:05:11.223Z,129.38
2018-07-21T07:06:11.156Z,129.38
2018-07-21T07:08:03.993Z,129.38
2018-07-21T07:09:03.907Z,135.00
2018-07-21T07:10:56.736Z,135.00
2018-07-21T07:11:56.668Z,135.00
2018-07-21T07:13:49.520Z,135.00
2018-07-21T07:14:49.388Z,135.00
2018-07-21T07:16:42.647Z,129.38
2018-07-21T07:17:42.559Z,123.75
2018-07-21T07:19:35.404Z,123.75
2018-07-21T07:20:35.417Z,151.88
2018-07-21T07:22:28.207Z,129.38
2018-07-21T07:23:28.049Z,123.75
2018-07-21T07:25:20.934Z,135.00
2018-07-21T07:26:20.806Z,151.88
2018-07-21T07:28:14.345Z,135.00
2018-07-21T07:29:13.536Z,185.63
2018-07-21T07:31:06.403Z,157.50
2018-07-21T07:32:06.317Z,157.50
2018-07-21T07:33:59.146Z,135.00
2018-07-21T07:34:59.062Z,135.00
2018-07-21T07:36:55.172Z,129.38
2018-07-21T07:37:55.042Z,129.38
2018-07-21T07:39:49.113Z,135.00
2018-07-21T07:40:48.596Z,157.50
2018-07-21T07:42:41.383Z,140.63
2018-07-21T07:43:41.291Z,146.25
2018-07-21T07:45:34.178Z,168.75
2018-07-21T07:46:34.031Z,157.50
2018-07-21T07:48:26.908Z,185.63
2018-07-21T07:49:26.793Z,151.88
2018-07-21T07:51:19.638Z,168.75
2018-07-21T07:52:19.553Z,151.88
2018-07-21T07:54:12.376Z,163.13
2018-07-21T07:55:12.297Z,168.75
2018-07-21T07:57:05.164Z,157.50
2018-07-21T07:58:05.034Z,151.88
2018-07-21T07:59:57.868Z,180.00
2018-07-21T08:00:57.786Z,180.00
2018-07-21T08:02:50.641Z,208.13
2018-07-21T08:03:50.536Z,208.13
2018-07-21T08:05:43.381Z,213.75
2018-07-21T08:06:43.318Z,213.75
2018-07-21T08:08:36.129Z,219.38
2018-07-21T08:09:36.088Z,219.38
2018-07-21T08:11:28.927Z,213.75
2018-07-21T08:12:28.788Z,213.75
2018-07-21T08:14:21.670Z,213.75
2018-07-21T08:15:21.539Z,213.75
2018-07-21T08:17:14.369Z,219.38
2018-07-21T08:18:14.343Z,196.88
2018-07-21T08:20:07.135Z,196.88
2018-07-21T08:21:07.032Z,208.13
2018-07-21T08:22:59.919Z,219.38
2018-07-21T08:23:59.771Z,219.38
2018-07-21T08:25:52.639Z,213.75
2018-07-21T08:26:52.541Z,219.38
2018-07-21T08:28:45.415Z,219.38
2018-07-21T08:29:45.374Z,219.38
2018-07-21T08:31:38.221Z,208.13
2018-07-21T08:32:38.158Z,219.38
2018-07-21T08:34:30.999Z,219.38
2018-07-21T08:35:30.891Z,219.38
2018-07-21T08:37:23.719Z,219.38
2018-07-21T08:38:23.635Z,219.38
2018-07-21T08:40:16.481Z,174.38
2018-07-21T08:41:16.393Z,202.50
2018-07-21T08:43:09.238Z,213.75
2018-07-21T08:44:09.251Z,202.50
2018-07-21T08:46:02.149Z,219.38
2018-07-21T08:47:01.929Z,219.38
2018-07-21T08:48:54.726Z,225.00
2018-07-21T08:49:54.698Z,213.75
2018-07-21T08:51:47.489Z,213.75
2018-07-21T08:52:47.382Z,225.00
2018-07-21T08:54:40.235Z,225.00
2018-07-21T08:55:40.164Z,230.63
2018-07-21T08:57:32.982Z,219.38
2018-07-21T08:58:32.921Z,219.38
2018-07-21T09:00:25.725Z,225.00
2018-07-21T09:01:25.641Z,213.75
2018-07-21T09:03:18.480Z,163.13
2018-07-21T09:04:18.385Z,157.50
2018-07-21T09:06:11.254Z,202.50
2018-07-21T09:07:11.128Z,213.75
2018-07-21T09:09:03.977Z,219.38
2018-07-21T09:10:03.884Z,219.38
2018-07-21T09:11:56.722Z,213.75
2018-07-21T09:12:56.632Z,168.75
2018-07-21T09:14:49.461Z,157.50
2018-07-21T09:15:49.383Z,202.50
2018-07-21T09:17:42.247Z,213.75
2018-07-21T09:18:42.137Z,219.38
2018-07-21T09:20:34.978Z,225.00
2018-07-21T09:21:34.957Z,219.38
2018-07-21T09:23:27.741Z,219.38
2018-07-21T09:24:27.667Z,219.38
2018-07-21T09:26:20.474Z,174.38
2018-07-21T09:27:20.381Z,180.00
2018-07-21T09:29:13.239Z,185.63
2018-07-21T09:30:13.129Z,196.88
2018-07-21T09:32:06.008Z,202.50
2018-07-21T09:33:05.882Z,202.50
2018-07-21T09:34:58.711Z,230.63
2018-07-21T09:35:58.634Z,225.00
2018-07-21T09:37:51.494Z,230.63
2018-07-21T09:38:51.397Z,230.63
2018-07-21T09:40:44.322Z,230.63
2018-07-21T09:41:44.223Z,230.63
2018-07-21T09:43:37.064Z,230.63
2018-07-21T09:44:36.977Z,230.63
2018-07-21T09:46:29.819Z,230.63
2018-07-21T09:47:29.738Z,230.63
2018-07-21T09:49:22.661Z,225.00
2018-07-21T09:50:22.583Z,219.38
2018-07-21T09:52:15.534Z,230.63
2018-07-21T09:53:15.434Z,230.63
2018-07-21T09:55:08.259Z,230.63
2018-07-21T09:56:08.193Z,230.63
2018-07-21T09:58:01.158Z,230.63
2018-07-21T09:59:01.042Z,230.63
2018-07-21T10:00:53.986Z,230.63
2018-07-21T10:01:53.882Z,230.63
2018-07-21T10:03:46.823Z,230.63
2018-07-21T10:04:46.741Z,230.63
2018-07-21T10:06:39.696Z,230.63
2018-07-21T10:07:39.588Z,225.00
2018-07-21T10:09:32.522Z,230.63
2018-07-21T10:10:32.435Z,225.00
2018-07-21T10:12:25.383Z,208.13
2018-07-21T10:13:25.284Z,213.75
2018-07-21T10:15:18.242Z,219.38
2018-07-21T10:16:18.137Z,230.63
2018-07-21T10:18:11.110Z,230.63
2018-07-21T10:19:11.031Z,230.63
2018-07-21T10:21:04.073Z,168.75
2018-07-21T10:22:03.998Z,146.25
2018-07-21T10:23:56.896Z,140.63
2018-07-21T10:24:56.839Z,118.13
2018-07-21T10:26:50.182Z,123.75
2018-07-21T10:27:49.658Z,129.38
2018-07-21T10:29:42.600Z,140.63
2018-07-21T10:30:42.506Z,146.25
2018-07-21T10:32:35.888Z,151.88
2018-07-21T10:33:35.853Z,151.88
2018-07-21T10:35:28.839Z,151.88
2018-07-21T10:36:28.674Z,157.50
2018-07-21T10:38:22.556Z,157.50
2018-07-21T10:39:22.034Z,146.25
2018-07-21T10:41:15.380Z,146.25
2018-07-21T10:42:14.874Z,151.88
2018-07-21T10:44:07.783Z,163.13
2018-07-21T10:45:07.696Z,168.75
2018-07-21T10:47:00.643Z,174.38
2018-07-21T10:48:00.557Z,174.38
2018-07-21T10:49:53.897Z,213.75
2018-07-21T10:50:53.865Z,225.00
2018-07-21T10:52:46.870Z,236.25
2018-07-21T10:53:46.753Z,236.25
2018-07-21T10:55:39.741Z,236.25
2018-07-21T10:56:39.618Z,236.25
2018-07-21T10:58:32.544Z,225.00
2018-07-21T10:59:32.475Z,230.63
2018-07-21T11:01:26.036Z,196.88
2018-07-21T11:02:25.828Z,191.25
2018-07-21T11:04:18.760Z,185.63
2018-07-21T11:05:18.674Z,185.63
2018-07-21T11:07:11.557Z,213.75
2018-07-21T11:08:11.474Z,230.63
2018-07-21T11:10:04.378Z,247.50
2018-07-21T11:11:04.276Z,247.50
2018-07-21T11:12:57.123Z,247.50
2018-07-21T11:13:57.045Z,247.50
2018-07-21T11:15:49.880Z,236.25
2018-07-21T11:16:49.787Z,225.00
2018-07-21T11:18:42.613Z,213.75
2018-07-21T11:19:42.640Z,219.38
2018-07-21T11:21:35.402Z,180.00
2018-07-21T11:22:35.799Z,191.25
2018-07-21T11:24:28.136Z,202.50
2018-07-21T11:25:28.070Z,202.50
2018-07-21T11:27:20.896Z,230.63
2018-07-21T11:28:21.365Z,236.25
2018-07-21T11:30:13.719Z,230.63
2018-07-21T11:31:13.632Z,230.63
2018-07-21T11:33:07.195Z,236.25
2018-07-21T11:34:06.278Z,225.00
2018-07-21T11:35:59.493Z,236.25
2018-07-21T11:36:59.035Z,236.25
2018-07-21T11:38:51.948Z,225.00
2018-07-21T11:39:52.107Z,208.13
2018-07-21T11:41:46.446Z,219.38
2018-07-21T11:42:46.226Z,219.38
2018-07-21T11:44:39.028Z,219.38
2018-07-21T11:45:38.707Z,208.13
2018-07-21T11:47:31.585Z,219.38
2018-07-21T11:48:31.458Z,270.00
2018-07-21T11:50:24.954Z,264.38
2018-07-21T11:51:24.218Z,270.00
2018-07-21T11:53:17.056Z,270.00
2018-07-21T11:54:16.971Z,253.13
2018-07-21T11:56:09.843Z,258.75
2018-07-21T11:57:09.883Z,264.38
2018-07-21T11:59:04.612Z,253.13
2018-07-21T12:00:04.568Z,253.13
2018-07-21T12:01:57.106Z,241.88
2018-07-21T12:02:56.956Z,253.13
2018-07-21T12:04:50.182Z,253.13
2018-07-21T12:05:50.131Z,241.88
2018-07-21T12:07:42.679Z,230.63
2018-07-21T12:08:42.627Z,208.13
2018-07-21T12:10:36.787Z,225.00
2018-07-21T12:11:36.756Z,241.88
2018-07-21T12:13:30.430Z,241.88
2018-07-21T12:14:30.172Z,219.38
2018-07-21T12:16:22.843Z,202.50
2018-07-21T12:17:22.744Z,213.75
2018-07-21T12:19:16.116Z,213.75
2018-07-21T12:20:15.556Z,213.75
2018-07-21T12:22:08.332Z,219.38
2018-07-21T12:23:08.617Z,208.13
2018-07-21T12:25:01.095Z,185.63
2018-07-21T12:26:01.000Z,180.00
2018-07-21T12:27:53.846Z,196.88
2018-07-21T12:28:53.741Z,191.25
2018-07-21T12:30:46.598Z,185.63
2018-07-21T12:31:46.487Z,174.38
2018-07-21T12:33:39.359Z,174.38
2018-07-21T12:34:39.476Z,168.75
2018-07-21T12:36:32.116Z,163.13
2018-07-21T12:37:32.031Z,157.50
2018-07-21T12:39:25.666Z,146.25
2018-07-21T12:40:25.937Z,140.63
2018-07-21T12:42:18.441Z,140.63
2018-07-21T12:43:18.306Z,140.63
2018-07-21T12:45:11.158Z,140.63
2018-07-21T12:46:11.055Z,146.25
2018-07-21T12:48:03.882Z,146.25
2018-07-21T12:49:03.812Z,146.25
2018-07-21T12:50:57.191Z,146.25
2018-07-21T12:51:56.558Z,146.25
2018-07-21T12:53:50.033Z,146.25
2018-07-21T12:54:49.926Z,140.63
2018-07-21T12:56:42.772Z,140.63
2018-07-21T12:57:42.665Z,140.63
2018-07-21T12:59:35.640Z,140.63
2018-07-21T13:00:35.425Z,140.63
2018-07-21T13:02:28.794Z,135.00
2018-07-21T13:03:28.275Z,135.00
2018-07-21T13:05:21.178Z,129.38
2018-07-21T13:06:21.030Z,129.38
2018-07-21T13:08:14.131Z,129.38
2018-07-21T13:09:14.138Z,129.38
2018-07-21T13:14:02.609Z,129.38
2018-07-21T13:15:02.038Z,129.38
2018-07-21T13:16:55.330Z,129.38
2018-07-21T13:17:54.780Z,129.38
2018-07-21T13:19:48.164Z,129.38
2018-07-21T13:20:47.731Z,129.38
2018-07-21T13:22:40.573Z,129.38
2018-07-21T13:23:40.519Z,129.38
2018-07-21T13:25:33.328Z,129.38
2018-07-21T13:26:33.338Z,129.38
2018-07-21T13:28:26.651Z,129.38
2018-07-21T13:29:26.433Z,129.38
2018-07-21T13:31:18.927Z,135.00
2018-07-21T13:32:18.849Z,135.00
2018-07-21T13:34:11.869Z,135.00
2018-07-21T13:35:13.030Z,135.00
2018-07-21T13:37:04.711Z,135.00
2018-07-21T13:38:04.805Z,135.00
2018-07-21T13:39:59.649Z,129.38
2018-07-21T13:41:00.638Z,129.38
2018-07-21T13:42:51.226Z,129.38
2018-07-21T13:43:50.920Z,129.38
2018-07-21T13:45:42.889Z,129.38
2018-07-21T13:46:43.769Z,129.38
2018-07-21T13:48:36.870Z,129.38
2018-07-21T13:49:35.537Z,135.00
2018-07-21T13:51:28.543Z,135.00
2018-07-21T13:52:28.282Z,135.00
2018-07-21T13:54:21.140Z,140.63
2018-07-21T13:55:21.054Z,135.00
2018-07-21T13:57:14.939Z,135.00
2018-07-21T13:58:13.901Z,135.00
2018-07-21T14:00:07.043Z,129.38
2018-07-21T14:01:06.853Z,129.38
2018-07-21T14:02:59.850Z,129.38
2018-07-21T14:03:59.919Z,123.75
2018-07-21T14:05:52.344Z,123.75
2018-07-21T14:06:52.261Z,123.75
2018-07-21T14:08:54.624Z,118.13
2018-07-21T14:09:52.780Z,118.13
2018-07-21T14:11:47.334Z,118.13
2018-07-21T14:12:45.849Z,118.13
2018-07-21T14:14:38.673Z,112.50
2018-07-21T14:15:38.614Z,112.50
2018-07-21T14:17:32.174Z,112.50
2018-07-21T14:18:31.542Z,112.50
2018-07-21T14:20:24.182Z,112.50
2018-07-21T14:21:24.071Z,112.50
2018-07-21T14:23:16.920Z,112.50
2018-07-21T14:24:16.820Z,112.50
2018-07-21T14:26:09.651Z,112.50
2018-07-21T14:27:09.575Z,106.88
2018-07-21T14:29:02.418Z,106.88
2018-07-21T14:30:02.399Z,106.88
2018-07-21T14:31:55.150Z,106.88
2018-07-21T14:32:55.068Z,106.88
2018-07-21T14:34:47.928Z,106.88
2018-07-21T14:35:47.866Z,106.88
2018-07-21T14:37:40.660Z,101.25
2018-07-21T14:38:40.576Z,101.25
2018-07-21T14:40:33.425Z,101.25
2018-07-21T14:41:33.335Z,101.25
2018-07-21T14:43:26.202Z,101.25
2018-07-21T14:44:26.160Z,101.25
2018-07-21T14:46:18.931Z,101.25
2018-07-21T14:47:19.064Z,101.25
2018-07-21T14:49:11.669Z,101.25
2018-07-21T14:50:11.570Z,101.25
2018-07-21T14:52:04.399Z,101.25
2018-07-21T14:53:04.320Z,95.63
2018-07-21T14:54:57.343Z,95.63
2018-07-21T14:55:57.070Z,95.63
2018-07-21T14:57:49.936Z,95.63
2018-07-21T14:58:49.822Z,95.63
2018-07-21T15:00:42.670Z,95.63
2018-07-21T15:01:42.659Z,95.63
2018-07-21T15:03:35.413Z,95.63
2018-07-21T15:04:35.337Z,95.63
2018-07-21T15:06:28.155Z,95.63
2018-07-21T15:07:28.176Z,95.63
2018-07-21T15:09:20.928Z,95.63
2018-07-21T15:10:20.833Z,95.63
2018-07-21T15:12:14.687Z,95.63
2018-07-21T15:13:14.593Z,101.25
2018-07-21T15:15:07.450Z,95.63
2018-07-21T15:16:07.334Z,95.63
2018-07-21T15:18:00.195Z,95.63
2018-07-21T15:19:00.094Z,95.63
2018-07-21T15:20:52.933Z,95.63
2018-07-21T15:21:52.832Z,95.63
2018-07-21T15:23:45.679Z,95.63
2018-07-21T15:24:45.585Z,95.63
2018-07-21T15:26:38.413Z,95.63
2018-07-21T15:27:38.375Z,95.63
2018-07-21T15:29:31.242Z,95.63
2018-07-21T15:30:31.085Z,95.63
2018-07-21T15:32:23.914Z,95.63
2018-07-21T15:33:23.857Z,95.63
2018-07-21T15:35:16.732Z,95.63
2018-07-21T15:36:16.628Z,95.63
2018-07-21T15:38:12.619Z,95.63
2018-07-21T15:39:12.354Z,95.63
2018-07-21T15:41:06.186Z,95.63
2018-07-21T15:42:06.112Z,95.63
2018-07-21T15:43:58.925Z,95.63
2018-07-21T15:44:58.828Z,95.63
2018-07-21T15:46:51.660Z,95.63
2018-07-21T15:47:51.604Z,95.63
2018-07-21T15:49:44.441Z,95.63
2018-07-21T15:50:44.343Z,95.63
2018-07-21T15:52:37.188Z,95.63
2018-07-21T15:53:37.086Z,95.63
2018-07-21T15:55:29.947Z,95.63
2018-07-21T15:56:29.825Z,95.63
2018-07-21T15:58:22.656Z,95.63
2018-07-21T15:59:22.577Z,95.63
2018-07-21T16:01:15.421Z,95.63
2018-07-21T16:02:15.357Z,101.25
2018-07-21T16:04:08.190Z,101.25
2018-07-21T16:05:08.069Z,101.25
2018-07-21T16:07:00.911Z,101.25
2018-07-21T16:08:00.826Z,101.25
2018-07-21T16:09:53.673Z,101.25
2018-07-21T16:10:53.576Z,101.25
2018-07-21T16:12:46.401Z,101.25
2018-07-21T16:13:46.342Z,101.25
2018-07-21T16:15:39.179Z,101.25
2018-07-21T16:16:39.088Z,101.25
2018-07-21T16:18:31.924Z,101.25
2018-07-21T16:19:31.818Z,101.25
2018-07-21T16:21:24.676Z,106.88
2018-07-21T16:22:24.611Z,106.88
2018-07-21T16:24:17.462Z,112.50
2018-07-21T16:25:17.317Z,112.50
2018-07-21T16:27:10.183Z,118.13
2018-07-21T16:28:10.076Z,123.75
2018-07-21T16:30:02.928Z,123.75
2018-07-21T16:31:02.824Z,129.38
2018-07-21T16:32:55.645Z,140.63
2018-07-21T16:33:55.578Z,146.25
2018-07-21T16:35:49.453Z,151.88
2018-07-21T16:36:48.374Z,157.50
2018-07-21T16:38:41.296Z,174.38
2018-07-21T16:39:41.171Z,174.38
2018-07-21T16:41:34.225Z,168.75
2018-07-21T16:42:34.132Z,157.50
2018-07-21T16:44:26.987Z,146.25
2018-07-21T16:45:26.897Z,146.25
2018-07-21T16:47:19.731Z,135.00
2018-07-21T16:48:19.634Z,135.00
2018-07-21T16:50:12.470Z,129.38
2018-07-21T16:51:12.375Z,129.38
2018-07-21T16:53:05.222Z,129.38
2018-07-21T16:54:05.148Z,129.38
2018-07-21T16:55:57.967Z,129.38
2018-07-21T16:56:57.888Z,129.38
2018-07-21T16:58:50.730Z,135.00
2018-07-21T16:59:50.636Z,135.00
2018-07-21T17:01:43.473Z,140.63
2018-07-21T17:02:43.372Z,140.63
2018-07-21T17:04:36.744Z,140.63
2018-07-21T17:05:36.637Z,140.63
2018-07-21T17:07:29.993Z,151.88
2018-07-21T17:08:29.903Z,157.50
2018-07-21T17:10:22.747Z,168.75
2018-07-21T17:11:22.644Z,180.00
2018-07-21T17:13:15.495Z,202.50
2018-07-21T17:14:15.391Z,219.38
2018-07-21T17:16:08.256Z,275.63
2018-07-21T17:17:08.171Z,298.13
2018-07-21T17:19:00.997Z,331.88
2018-07-21T17:20:00.891Z,348.75
2018-07-21T17:21:53.725Z,613.13
2018-07-21T17:22:53.637Z,973.13
2018-07-21T17:24:46.487Z,1411.88
2018-07-21T17:25:46.390Z,1333.13
2018-07-21T17:27:39.368Z,1051.88
2018-07-21T17:28:39.165Z,871.88
2018-07-21T17:30:32.014Z,697.50
2018-07-21T17:31:31.895Z,472.50
2018-07-21T17:33:25.253Z,365.63
2018-07-21T17:34:25.156Z,241.88
2018-07-21T17:36:18.026Z,180.00
2018-07-21T17:37:17.953Z,180.00
2018-07-21T17:39:10.791Z,309.38
2018-07-21T17:40:10.706Z,376.88
2018-07-21T17:42:03.520Z,821.25
2018-07-21T17:43:03.427Z,511.88
2018-07-21T17:44:56.259Z,376.88
2018-07-21T17:45:56.183Z,416.25
2018-07-21T17:47:48.981Z,371.25
2018-07-21T17:48:48.902Z,444.38
2018-07-21T17:50:41.748Z,455.63
2018-07-21T17:51:41.672Z,540.00
2018-07-21T17:53:34.500Z,787.50
2018-07-21T17:54:34.396Z,804.38
2018-07-21T17:56:27.283Z,573.75
2018-07-21T17:57:27.153Z,703.13
2018-07-21T17:59:19.996Z,793.13
2018-07-21T18:00:19.895Z,826.88
2018-07-21T18:02:12.728Z,714.38
2018-07-21T18:03:12.661Z,815.63
2018-07-21T18:05:05.500Z,770.63
2018-07-21T18:06:05.395Z,731.25
2018-07-21T18:07:58.244Z,461.25
2018-07-21T18:08:58.168Z,208.13
2018-07-21T18:10:50.995Z,163.13
2018-07-21T18:11:50.903Z,157.50
2018-07-21T18:13:43.730Z,151.88
2018-07-21T18:14:43.646Z,146.25
2018-07-21T18:16:36.518Z,146.25
2018-07-21T18:17:36.408Z,146.25
2018-07-21T18:19:29.270Z,135.00
2018-07-21T18:20:29.198Z,135.00
2018-07-21T18:22:22.107Z,140.63